Time;durP1;ratioP1;P1;durP2;ratioP2;P2;SDS_P1;SDS_P2;PMS_P1;PMS_P2;Temp;Humidity;BMP_temperature;BMP_pressure;BME280_temperature;BME280_humidity;BME280_pressure;Samples;Min_cycle;Max_cycle;Signal;HPM_P1;HPM_P2
2022/07/23 00:00:10;;;;;;;23.10;10.80;;;16.40;99.90;;;;;;2605744;54;20520;-73
2022/07/23 00:02:36;;;;;;;13.13;9.33;;;16.40;99.90;;;;;;2604394;54;20547;-74
2022/07/23 00:05:01;;;;;;;17.13;11.00;;;16.40;99.90;;;;;;2605673;54;20417;-75
2022/07/23 00:07:27;;;;;;;13.43;11.37;;;16.40;99.90;;;;;;2605566;54;20175;-75
2022/07/23 00:09:53;;;;;;;16.23;9.70;;;16.40;99.90;;;;;;2603819;47;20467;-80
2022/07/23 00:12:18;;;;;;;15.40;11.47;;;16.30;99.90;;;;;;2606594;54;20220;-80
2022/07/23 00:14:44;;;;;;;12.93;11.67;;;16.20;99.90;;;;;;2605550;54;20161;-75
2022/07/23 00:17:10;;;;;;;11.40;10.30;;;16.30;99.90;;;;;;2605654;39;20588;-75
2022/07/23 00:19:35;;;;;;;18.77;13.37;;;16.20;99.90;;;;;;2604383;54;20176;-77
2022/07/23 00:22:01;;;;;;;13.00;11.47;;;16.20;99.90;;;;;;2603672;54;20231;-77
2022/07/23 00:24:27;;;;;;;13.57;12.13;;;16.20;99.90;;;;;;2605583;54;20163;-76
2022/07/23 00:26:52;;;;;;;15.70;13.10;;;16.20;99.90;;;;;;2604028;54;20679;-76
2022/07/23 00:29:18;;;;;;;17.90;13.93;;;16.20;99.90;;;;;;2604263;47;20192;-82
2022/07/23 00:31:43;;;;;;;19.30;13.90;;;16.20;99.90;;;;;;2606360;54;20193;-83
2022/07/23 00:34:09;;;;;;;17.50;14.17;;;16.10;99.90;;;;;;2606223;47;20223;-74
2022/07/23 00:36:35;;;;;;;20.27;16.00;;;16.10;99.90;;;;;;2604518;54;20622;-75
2022/07/23 00:39:00;;;;;;;33.60;15.30;;;16.20;99.90;;;;;;2603591;47;20166;-77
2022/07/23 00:41:26;;;;;;;16.70;14.10;;;16.10;99.90;;;;;;2603166;54;20878;-77
2022/07/23 00:43:52;;;;;;;23.30;18.03;;;16.10;99.90;;;;;;2603460;54;20185;-77
2022/07/23 00:46:21;;;;;;;16.70;14.93;;;16.10;99.90;;;;;;2603221;54;20169;-78
2022/07/23 00:48:48;;;;;;;17.07;15.27;;;16.10;99.90;;;;;;2604109;54;20155;-76
2022/07/23 00:51:16;;;;;;;19.00;17.00;;;16.10;99.90;;;;;;2602455;54;20430;-76
2022/07/23 00:53:42;;;;;;;21.30;15.73;;;16.00;99.90;;;;;;2603224;54;20419;-81
2022/07/23 00:56:08;;;;;;;18.67;15.83;;;16.10;99.90;;;;;;2603105;54;20420;-80
2022/07/23 00:58:35;;;;;;;22.43;14.83;;;16.00;99.90;;;;;;2604334;54;21077;-78
2022/07/23 01:01:01;;;;;;;18.27;15.57;;;16.00;99.90;;;;;;2607289;54;20474;-78
2022/07/23 01:03:27;;;;;;;22.43;16.93;;;16.00;99.90;;;;;;2607109;31;20963;-78
2022/07/23 01:05:53;;;;;;;22.30;18.50;;;16.00;99.90;;;;;;2606287;39;20762;-82
2022/07/23 01:08:19;;;;;;;20.00;17.10;;;16.00;99.90;;;;;;2606928;54;20212;-82
2022/07/23 01:10:47;;;;;;;20.90;17.90;;;16.00;99.90;;;;;;2606923;54;20451;-80
2022/07/23 01:13:13;;;;;;;28.13;16.67;;;15.90;99.90;;;;;;2605091;54;20412;-80
2022/07/23 01:15:39;;;;;;;26.00;18.00;;;15.90;99.90;;;;;;2605583;54;21995;-80
2022/07/23 01:18:06;;;;;;;23.90;19.57;;;15.90;99.90;;;;;;2606664;54;20206;-80
2022/07/23 01:20:32;;;;;;;23.23;19.00;;;15.90;99.90;;;;;;2604906;54;20439;-75
2022/07/23 01:22:58;;;;;;;24.13;18.83;;;15.90;99.90;;;;;;2604873;54;20504;-76
2022/07/23 01:25:25;;;;;;;19.33;16.53;;;15.90;99.90;;;;;;2606493;46;20443;-81
2022/07/23 01:27:52;;;;;;;25.80;19.57;;;15.90;99.90;;;;;;2604521;46;20425;-82
2022/07/23 01:30:19;;;;;;;22.47;17.43;;;15.90;99.90;;;;;;2604572;54;20468;-83
2022/07/23 01:32:45;;;;;;;20.50;17.30;;;16.00;99.90;;;;;;2608587;54;20421;-82
2022/07/23 01:35:11;;;;;;;23.93;17.00;;;16.00;99.90;;;;;;2609679;47;20427;-82
2022/07/23 01:37:38;;;;;;;19.57;17.53;;;16.00;99.90;;;;;;2607492;54;20516;-80
2022/07/23 01:40:04;;;;;;;20.67;14.27;;;16.00;99.90;;;;;;2608830;54;20411;-80
2022/07/23 01:42:30;;;;;;;18.63;15.20;;;15.90;99.90;;;;;;2606671;54;20428;-80
2022/07/23 01:44:56;;;;;;;21.50;16.57;;;16.00;99.90;;;;;;2609324;54;20429;-80
2022/07/23 01:47:21;;;;;;;21.00;16.07;;;15.90;99.90;;;;;;2607916;54;20164;-78
2022/07/23 01:49:47;;;;;;;17.07;15.27;;;15.90;99.90;;;;;;2608689;54;20216;-79
2022/07/23 01:52:13;;;;;;;18.73;15.93;;;15.90;99.90;;;;;;2607599;46;20191;-74
2022/07/23 01:54:39;;;;;;;24.67;16.10;;;15.90;99.90;;;;;;2603483;54;20195;-74
2022/07/23 01:57:06;;;;;;;17.03;15.33;;;15.80;99.90;;;;;;2603107;54;20189;-82
2022/07/23 01:59:32;;;;;;;21.00;16.83;;;15.80;99.90;;;;;;2604015;31;21141;-82
2022/07/23 02:01:58;;;;;;;17.30;15.43;;;15.90;99.90;;;;;;2603997;47;20445;-79
2022/07/23 02:04:24;;;;;;;21.37;16.60;;;15.90;99.90;;;;;;2603696;54;20429;-79
2022/07/23 02:06:50;;;;;;;17.90;16.20;;;15.90;99.90;;;;;;2603707;39;20604;-79
2022/07/23 02:09:17;;;;;;;16.77;15.07;;;15.90;99.90;;;;;;2604211;54;20473;-79
2022/07/23 02:11:43;;;;;;;22.47;15.77;;;15.90;99.90;;;;;;2603645;54;20414;-80
2022/07/23 02:14:08;;;;;;;17.10;15.40;;;15.90;99.90;;;;;;2605530;54;20440;-79
2022/07/23 02:16:34;;;;;;;16.70;14.83;;;15.90;99.90;;;;;;2604414;54;20800;-79
2022/07/23 02:19:00;;;;;;;19.60;15.77;;;16.00;99.90;;;;;;2603465;47;20227;-79
2022/07/23 02:21:26;;;;;;;16.07;14.50;;;15.90;99.90;;;;;;2605317;54;20647;-77
2022/07/23 02:23:51;;;;;;;16.80;15.20;;;15.90;99.90;;;;;;2604209;47;20250;-77
2022/07/23 02:26:17;;;;;;;16.87;14.40;;;15.90;99.90;;;;;;2605233;39;20339;-78
2022/07/23 02:28:43;;;;;;;17.87;15.30;;;15.90;99.90;;;;;;2604581;54;20163;-79
2022/07/23 02:31:08;;;;;;;16.20;14.50;;;15.80;99.90;;;;;;2605204;47;20202;-75
2022/07/23 02:33:34;;;;;;;18.00;14.90;;;15.80;99.90;;;;;;2604446;39;20848;-76
2022/07/23 02:36:00;;;;;;;16.97;14.80;;;15.80;99.90;;;;;;2604473;54;20220;-78
2022/07/23 02:38:26;;;;;;;25.10;15.67;;;15.80;99.90;;;;;;2604425;54;21125;-79
2022/07/23 02:40:52;;;;;;;17.63;15.83;;;15.80;99.90;;;;;;2605389;54;20251;-75
2022/07/23 02:43:18;;;;;;;19.70;16.27;;;15.70;99.90;;;;;;2602787;54;20190;-76
2022/07/23 02:45:43;;;;;;;17.50;15.70;;;15.60;99.90;;;;;;2602652;54;20428;-82
2022/07/23 02:48:12;;;;;;;17.33;15.00;;;15.60;99.90;;;;;;2602731;54;20206;-76
2022/07/23 02:50:38;;;;;;;22.90;17.43;;;15.60;99.90;;;;;;2602068;54;20163;-76
2022/07/23 02:53:03;;;;;;;19.33;15.37;;;15.50;99.90;;;;;;2601600;54;20427;-73
2022/07/23 02:55:29;;;;;;;20.57;16.93;;;15.50;99.90;;;;;;2602647;39;20762;-74
2022/07/23 02:57:55;;;;;;;20.00;15.97;;;15.50;99.90;;;;;;2603210;54;20171;-76
2022/07/23 03:00:21;;;;;;;20.10;15.90;;;15.40;99.90;;;;;;2603178;47;20494;-75
2022/07/23 03:02:46;;;;;;;23.90;18.47;;;15.40;99.90;;;;;;2603979;54;20167;-82
2022/07/23 03:05:12;;;;;;;23.50;18.83;;;15.40;99.90;;;;;;2602341;54;20168;-82
2022/07/23 03:07:38;;;;;;;21.67;19.00;;;15.40;99.90;;;;;;2603366;54;20176;-76
2022/07/23 03:10:03;;;;;;;23.90;18.27;;;15.40;99.90;;;;;;2603875;47;20845;-76
2022/07/23 03:12:29;;;;;;;21.07;18.50;;;15.40;99.90;;;;;;2603666;54;20180;-81
2022/07/23 03:14:55;;;;;;;20.53;17.90;;;15.40;99.90;;;;;;2603756;54;20841;-81
2022/07/23 03:17:20;;;;;;;28.80;18.50;;;15.40;99.90;;;;;;2605337;47;20250;-81
2022/07/23 03:19:46;;;;;;;20.50;17.83;;;15.40;99.90;;;;;;2604192;54;20587;-80
2022/07/23 03:22:12;;;;;;;21.53;18.47;;;15.30;99.90;;;;;;2603779;54;20254;-79
2022/07/23 03:24:55;;;;;;;22.87;18.73;;;15.30;99.90;;;;;;2606377;54;20164;-79
2022/07/23 03:27:26;;;;;;;21.17;18.13;;;15.20;99.90;;;;;;2605621;39;20749;-76
2022/07/23 03:29:53;;;;;;;25.10;19.90;;;15.10;99.90;;;;;;2603729;54;20412;-76
2022/07/23 03:32:19;;;;;;;23.80;19.53;;;15.00;99.90;;;;;;2603236;39;20885;-74
2022/07/23 03:34:45;;;;;;;23.13;17.70;;;15.00;99.90;;;;;;2603334;54;20427;-74
2022/07/23 03:37:11;;;;;;;24.63;17.47;;;14.90;99.90;;;;;;2604978;46;20439;-79
2022/07/23 03:39:37;;;;;;;24.90;18.60;;;14.90;99.90;;;;;;2604728;54;20416;-79
2022/07/23 03:42:03;;;;;;;26.83;19.30;;;14.90;99.90;;;;;;2604527;54;20171;-79
2022/07/23 03:44:29;;;;;;;32.33;18.47;;;14.90;99.90;;;;;;2605869;54;20160;-79
2022/07/23 03:46:54;;;;;;;25.87;18.40;;;14.80;99.90;;;;;;2604846;54;20970;-76
2022/07/23 03:49:20;;;;;;;24.53;18.27;;;14.70;99.90;;;;;;2604380;54;20431;-77
2022/07/23 03:51:46;;;;;;;25.10;19.43;;;14.70;99.90;;;;;;2604712;54;20155;-79
2022/07/23 03:54:12;;;;;;;22.67;19.17;;;14.70;99.90;;;;;;2604822;39;20547;-79
2022/07/23 03:56:38;;;;;;;25.90;18.43;;;14.70;99.90;;;;;;2605575;47;20462;-79
2022/07/23 03:59:04;;;;;;;34.20;19.77;;;14.70;99.90;;;;;;2603334;54;20171;-80
2022/07/23 04:01:29;;;;;;;23.50;19.80;;;14.60;99.90;;;;;;2607505;54;20617;-77
2022/07/23 04:03:55;;;;;;;22.10;18.90;;;14.60;99.90;;;;;;2605748;39;21035;-77
2022/07/23 04:06:21;;;;;;;26.10;19.47;;;14.50;99.90;;;;;;2603677;47;20170;-79
2022/07/23 04:08:46;;;;;;;33.23;21.03;;;14.50;99.90;;;;;;2607674;54;20669;-79
2022/07/23 04:11:12;;;;;;;28.00;21.90;;;14.60;99.90;;;;;;2607006;54;20167;-80
2022/07/23 04:13:38;;;;;;;32.50;21.73;;;14.70;99.90;;;;;;2603291;54;20173;-80
2022/07/23 04:16:04;;;;;;;30.90;20.80;;;14.70;99.90;;;;;;2607618;54;20155;-77
2022/07/23 04:18:30;;;;;;;29.13;20.97;;;14.70;99.90;;;;;;2606086;39;20582;-77
2022/07/23 04:20:55;;;;;;;33.70;20.67;;;14.70;99.90;;;;;;2605441;54;20463;-81
2022/07/23 04:23:21;;;;;;;26.80;19.83;;;14.70;99.90;;;;;;2603194;54;20670;-81
2022/07/23 04:25:47;;;;;;;25.10;19.73;;;14.60;99.90;;;;;;2603261;54;20171;-75
2022/07/23 04:28:13;;;;;;;36.87;22.20;;;14.70;99.90;;;;;;2602992;54;20435;-74
2022/07/23 04:30:38;;;;;;;28.77;21.17;;;14.80;99.90;;;;;;2602650;54;20178;-78
2022/07/23 04:33:07;;;;;;;33.13;21.33;;;14.80;99.90;;;;;;2602256;54;20277;-77
2022/07/23 04:35:34;;;;;;;30.23;22.20;;;14.80;99.90;;;;;;2607855;39;20597;-77
2022/07/23 04:37:59;;;;;;;27.00;19.63;;;14.90;99.90;;;;;;2606868;54;20410;-77
2022/07/23 04:40:26;;;;;;;29.57;20.33;;;14.90;99.90;;;;;;2607795;39;20808;-77
2022/07/23 04:42:51;;;;;;;30.80;21.80;;;15.00;99.90;;;;;;2609861;54;20215;-82
2022/07/23 04:45:17;;;;;;;30.97;21.20;;;15.00;99.90;;;;;;2607705;54;20419;-82
2022/07/23 04:47:43;;;;;;;27.83;19.83;;;15.00;99.90;;;;;;2606664;54;20171;-81
2022/07/23 04:50:09;;;;;;;34.53;22.67;;;15.10;99.90;;;;;;2605703;54;20910;-82
2022/07/23 04:52:34;;;;;;;37.00;23.63;;;15.20;99.90;;;;;;2602899;47;20201;-79
2022/07/23 04:55:00;;;;;;;35.70;22.80;;;15.30;99.90;;;;;;2604586;54;20214;-79
2022/07/23 04:57:26;;;;;;;30.10;21.97;;;15.50;99.90;;;;;;2604220;54;20761;-77
2022/07/23 04:59:52;;;;;;;24.70;21.23;;;15.60;99.90;;;;;;2605886;54;20808;-76
2022/07/23 05:02:17;;;;;;;33.10;23.77;;;15.60;99.90;;;;;;2606139;54;20194;-79
2022/07/23 05:04:43;;;;;;;33.80;23.43;;;15.50;99.90;;;;;;2603838;54;20173;-79
2022/07/23 05:07:09;;;;;;;25.40;21.50;;;15.60;99.90;;;;;;2605326;54;20179;-84
2022/07/23 05:09:34;;;;;;;35.43;24.00;;;15.60;99.90;;;;;;2608435;54;20154;-87
2022/07/23 05:12:00;;;;;;;34.17;25.33;;;15.70;99.90;;;;;;2607533;54;21152;-80
2022/07/23 05:14:26;;;;;;;32.80;25.33;;;15.90;99.90;;;;;;2605759;54;20164;-80
2022/07/23 05:16:52;;;;;;;32.07;24.83;;;16.10;99.90;;;;;;2608343;54;20563;-79
2022/07/23 05:19:18;;;;;;;28.13;22.30;;;16.10;99.90;;;;;;2605925;54;20980;-79
2022/07/23 05:21:43;;;;;;;40.70;24.43;;;16.20;99.90;;;;;;2604956;54;20292;-85
2022/07/23 05:24:09;;;;;;;27.43;20.90;;;16.30;99.90;;;;;;2604412;54;20804;-85
2022/07/23 05:26:35;;;;;;;28.33;21.70;;;16.40;99.90;;;;;;2606474;54;20754;-79
2022/07/23 05:29:00;;;;;;;26.77;22.33;;;16.50;99.90;;;;;;2605334;54;20274;-79
2022/07/23 05:31:26;;;;;;;25.87;22.70;;;17.10;99.90;;;;;;2605217;54;20187;-78
2022/07/23 05:33:52;;;;;;;25.97;21.30;;;17.40;99.90;;;;;;2605365;54;20934;-78
2022/07/23 05:36:17;;;;;;;27.87;21.30;;;17.60;99.90;;;;;;2604776;54;20257;-83
2022/07/23 05:38:43;;;;;;;33.00;21.83;;;17.90;99.90;;;;;;2603723;54;20316;-82
2022/07/23 05:41:09;;;;;;;25.23;21.23;;;18.10;99.90;;;;;;2603663;39;20477;-84
2022/07/23 05:43:34;;;;;;;23.03;20.53;;;18.30;99.90;;;;;;2609137;54;20156;-82
2022/07/23 05:46:00;;;;;;;22.50;20.17;;;18.30;99.90;;;;;;2609253;54;20162;-78
2022/07/23 05:48:26;;;;;;;23.40;19.27;;;18.30;99.90;;;;;;2609769;54;21116;-78
2022/07/23 05:50:51;;;;;;;25.13;22.03;;;18.30;99.90;;;;;;2608070;54;21163;-77
2022/07/23 05:53:17;;;;;;;21.57;19.10;;;18.50;99.90;;;;;;2605381;39;20542;-77
2022/07/23 05:55:43;;;;;;;21.63;18.23;;;18.40;99.90;;;;;;2605407;54;20184;-78
2022/07/23 05:58:09;;;;;;;21.27;19.07;;;18.60;99.90;;;;;;2604075;47;20192;-78
2022/07/23 06:00:35;;;;;;;22.33;18.57;;;18.70;99.90;;;;;;2600419;54;21233;-77
2022/07/23 06:03:00;;;;;;;20.17;18.10;;;19.10;99.90;;;;;;2601617;54;20169;-77
2022/07/23 06:05:26;;;;;;;18.20;16.60;;;18.90;99.90;;;;;;2601436;54;20195;-77
2022/07/23 06:07:52;;;;;;;19.20;17.23;;;18.90;99.90;;;;;;2600911;54;20241;-78
2022/07/23 06:10:18;;;;;;;20.47;17.20;;;18.80;99.90;;;;;;2602793;47;20354;-78
2022/07/23 06:12:44;;;;;;;17.13;15.50;;;19.00;99.90;;;;;;2606484;54;20414;-77
2022/07/23 06:15:11;;;;;;;17.83;16.23;;;18.30;99.90;;;;;;2606787;39;20464;-78
2022/07/23 06:17:39;;;;;;;19.07;17.37;;;19.00;99.90;;;;;;2604591;46;20297;-78
2022/07/23 06:20:06;;;;;;;18.93;17.13;;;19.70;99.90;;;;;;2601085;54;20477;-79
2022/07/23 06:22:31;;;;;;;19.53;16.37;;;19.00;99.90;;;;;;2603713;54;20423;-78
2022/07/23 06:24:57;;;;;;;17.87;16.07;;;19.10;99.90;;;;;;2602434;54;20460;-80
2022/07/23 06:27:23;;;;;;;17.27;15.70;;;19.40;99.90;;;;;;2601861;54;20265;-78
2022/07/23 06:29:48;;;;;;;21.87;18.00;;;19.00;99.90;;;;;;2598400;54;20177;-80
2022/07/23 06:32:14;;;;;;;18.30;16.60;;;19.90;99.90;;;;;;2599246;54;21254;-79
2022/07/23 06:34:40;;;;;;;19.30;17.40;;;20.30;99.90;;;;;;2596872;54;20175;-79
2022/07/23 06:37:05;;;;;;;20.53;16.23;;;20.00;99.90;;;;;;2599821;39;20235;-79
2022/07/23 06:39:31;;;;;;;19.33;17.00;;;20.20;99.90;;;;;;2598836;54;20731;-79
2022/07/23 06:41:57;;;;;;;19.00;17.10;;;20.10;99.90;;;;;;2650318;36;20205;-79
2022/07/23 06:44:22;;;;;;;19.63;17.73;;;19.90;99.90;;;;;;2597017;54;20175;-80
2022/07/23 06:46:48;;;;;;;21.10;17.37;;;20.20;99.90;;;;;;2598452;46;20687;-78
2022/07/23 06:49:14;;;;;;;18.70;16.90;;;19.50;99.90;;;;;;2600693;54;20604;-78
2022/07/23 06:51:39;;;;;;;23.77;18.00;;;19.50;99.90;;;;;;2600692;54;20538;-78
2022/07/23 06:54:05;;;;;;;20.50;18.10;;;19.40;99.90;;;;;;2600308;54;20636;-78
2022/07/23 06:56:31;;;;;;;19.70;17.60;;;19.10;99.90;;;;;;2602344;54;20342;-77
2022/07/23 06:58:57;;;;;;;20.40;18.53;;;19.40;99.90;;;;;;2599775;54;20162;-78
2022/07/23 07:01:22;;;;;;;21.77;19.40;;;19.60;99.90;;;;;;2597952;54;21264;-78
2022/07/23 07:03:48;;;;;;;20.33;17.80;;;19.70;99.90;;;;;;2598383;54;22236;-78
2022/07/23 07:06:14;;;;;;;20.50;17.87;;;19.60;99.90;;;;;;2600334;54;20173;-78
2022/07/23 07:08:42;;;;;;;19.37;17.37;;;19.70;99.90;;;;;;2600483;54;20155;-78
2022/07/23 07:11:08;;;;;;;24.87;17.40;;;19.20;99.90;;;;;;2601181;54;20408;-79
2022/07/23 07:13:34;;;;;;;18.93;16.70;;;19.90;99.90;;;;;;2599939;54;20427;-78
2022/07/23 07:15:59;;;;;;;19.03;17.13;;;20.70;99.90;;;;;;2602122;54;20193;-77
2022/07/23 07:18:26;;;;;;;17.60;15.67;;;20.50;99.90;;;;;;2599761;54;20194;-77
2022/07/23 07:20:52;;;;;;;20.53;17.20;;;20.20;99.90;;;;;;2601266;54;20158;-77
2022/07/23 07:23:17;;;;;;;21.43;17.90;;;20.30;99.90;;;;;;2597946;54;20414;-77
2022/07/23 07:25:43;;;;;;;18.20;16.43;;;20.10;99.90;;;;;;2600434;39;20760;-78
2022/07/23 07:28:09;;;;;;;20.90;18.67;;;19.60;99.90;;;;;;2599182;54;20194;-77
2022/07/23 07:30:34;;;;;;;19.60;17.70;;;19.40;99.90;;;;;;2598593;54;20170;-77
2022/07/23 07:33:00;;;;;;;26.23;21.07;;;19.60;99.90;;;;;;2598400;54;20162;-78
2022/07/23 07:35:26;;;;;;;22.57;20.57;;;19.80;99.90;;;;;;2599282;54;20169;-78
2022/07/23 07:37:51;;;;;;;40.80;25.20;;;19.80;99.90;;;;;;2601011;54;20909;-78
2022/07/23 07:40:18;;;;;;;32.07;29.00;;;19.90;99.90;;;;;;2600223;54;20169;-78
2022/07/23 07:42:47;;;;;;;36.50;32.60;;;20.00;99.90;;;;;;2599080;54;20285;-78
2022/07/23 07:45:13;;;;;;;36.60;32.83;;;20.70;99.90;;;;;;2600499;39;20450;-78
2022/07/23 07:47:39;;;;;;;33.50;30.40;;;20.80;99.90;;;;;;2599439;39;20737;-78
2022/07/23 07:50:05;;;;;;;33.27;29.63;;;20.20;99.90;;;;;;2600797;54;20167;-77
2022/07/23 07:52:30;;;;;;;31.53;28.23;;;19.90;99.90;;;;;;2602496;54;20285;-77
2022/07/23 07:54:56;;;;;;;27.17;24.57;;;19.90;99.90;;;;;;2600982;39;20839;-77
2022/07/23 07:57:22;;;;;;;25.07;22.77;;;19.70;99.90;;;;;;2602504;54;20170;-77
2022/07/23 07:59:47;;;;;;;26.77;24.10;;;19.90;99.90;;;;;;2602097;54;20174;-77
2022/07/23 08:02:13;;;;;;;23.13;21.03;;;20.70;99.90;;;;;;2603410;54;20262;-77
2022/07/23 08:04:38;;;;;;;21.90;19.93;;;20.90;99.90;;;;;;2603131;54;20257;-77
2022/07/23 08:07:04;;;;;;;26.60;24.37;;;22.00;99.90;;;;;;2604534;54;20169;-77
2022/07/23 08:09:30;;;;;;;24.23;22.13;;;21.80;99.90;;;;;;2607613;54;20176;-77
2022/07/23 08:11:55;;;;;;;25.07;23.07;;;21.60;99.90;;;;;;2607493;54;20175;-77
2022/07/23 08:14:21;;;;;;;23.30;21.40;;;21.00;99.90;;;;;;2606013;54;20313;-77
2022/07/23 08:16:46;;;;;;;23.00;21.00;;;21.90;99.90;;;;;;2601531;54;20176;-77
2022/07/23 08:19:12;;;;;;;21.13;19.30;;;21.20;99.90;;;;;;2603599;54;20174;-77
2022/07/23 08:21:38;;;;;;;21.50;19.50;;;21.70;99.90;;;;;;2604099;39;20241;-77
2022/07/23 08:24:04;;;;;;;20.87;18.87;;;21.80;99.90;;;;;;2604000;54;20151;-77
2022/07/23 08:26:29;;;;;;;18.13;16.73;;;22.20;99.90;;;;;;2603155;31;20345;-77
2022/07/23 08:28:55;;;;;;;16.90;15.70;;;21.70;99.90;;;;;;2602659;54;20162;-77
2022/07/23 08:31:20;;;;;;;18.27;16.70;;;21.30;99.90;;;;;;2602240;54;20167;-78
2022/07/23 08:33:46;;;;;;;16.70;15.30;;;21.30;99.90;;;;;;2599012;54;20155;-78
2022/07/23 08:36:12;;;;;;;13.20;12.10;;;21.80;99.90;;;;;;2600926;54;20695;-76
2022/07/23 08:38:37;;;;;;;15.33;13.93;;;21.70;99.90;;;;;;2602071;39;20571;-78
2022/07/23 08:41:04;;;;;;;13.90;12.70;;;22.10;98.10;;;;;;2607152;54;20159;-78
2022/07/23 08:43:32;;;;;;;13.70;12.43;;;22.90;99.90;;;;;;2608117;54;20167;-78
2022/07/23 08:46:00;;;;;;;12.50;11.60;;;23.20;83.50;;;;;;2610505;39;20854;-83
2022/07/23 08:48:31;;;;;;;11.07;10.17;;;23.50;85.90;;;;;;2610074;54;20416;-84
2022/07/23 08:51:00;;;;;;;12.83;11.73;;;23.60;87.70;;;;;;2609938;39;20814;-78
2022/07/23 08:53:27;;;;;;;13.20;12.20;;;23.70;69.10;;;;;;2610102;54;20518;-78
2022/07/23 08:55:55;;;;;;;15.17;13.90;;;24.10;69.40;;;;;;2609337;54;20431;-85
2022/07/23 08:58:22;;;;;;;15.50;14.00;;;23.50;58.40;;;;;;2607903;54;20419;-84
2022/07/23 09:00:49;;;;;;;13.03;12.10;;;24.30;63.80;;;;;;2602770;39;21136;-84
2022/07/23 09:03:26;;;;;;;12.00;10.90;;;24.10;59.20;;;;;;2605281;54;20423;-84
2022/07/23 09:05:53;;;;;;;10.30;9.30;;;24.10;43.70;;;;;;2603759;39;20889;-83
2022/07/23 09:08:22;;;;;;;12.03;11.13;;;23.50;40.30;;;;;;2603341;39;20520;-83
2022/07/23 09:11:00;;;;;;;11.00;9.97;;;22.00;57.50;;;;;;2604134;54;20441;-80
2022/07/23 09:14:05;;;;;;;10.47;9.67;;;22.50;58.20;;;;;;2605826;54;20538;-80
2022/07/23 09:16:31;;;;;;;10.40;9.53;;;22.60;51.10;;;;;;2603914;54;20427;-81
2022/07/23 09:18:59;;;;;;;9.30;8.60;;;22.60;51.40;;;;;;2604656;54;20441;-81
2022/07/23 09:21:31;;;;;;;9.77;8.87;;;23.50;45.10;;;;;;2603353;54;21132;-81
2022/07/23 09:24:04;;;;;;;9.37;8.47;;;22.90;50.20;;;;;;2601750;54;20427;-81
2022/07/23 09:26:34;;;;;;;9.50;8.70;;;23.30;43.20;;;;;;2599389;54;20520;-81
2022/07/23 09:29:22;;;;;;;8.23;7.73;;;24.20;43.00;;;;;;2601098;54;20539;-80
2022/07/23 09:31:56;;;;;;;10.37;9.20;;;22.50;38.40;;;;;;2599306;54;21279;-82
2022/07/23 09:34:26;;;;;;;10.00;9.00;;;22.90;37.10;;;;;;2600347;39;20529;-82
2022/07/23 09:36:55;;;;;;;10.00;7.97;;;23.00;37.90;;;;;;2600084;54;20441;-82
2022/07/23 09:39:31;;;;;;;8.97;8.20;;;23.60;42.10;;;;;;2603537;54;20523;-82
2022/07/23 09:41:58;;;;;;;9.53;8.63;;;24.40;37.20;;;;;;2603375;54;20399;-82
2022/07/23 09:44:24;;;;;;;8.47;7.97;;;23.80;28.90;;;;;;2603542;39;20727;-82
2022/07/23 09:46:56;;;;;;;9.90;8.63;;;24.70;35.90;;;;;;2602234;54;20436;-83
2022/07/23 09:49:23;;;;;;;10.10;9.30;;;24.70;33.00;;;;;;2600308;39;20313;-83
2022/07/23 09:51:57;;;;;;;13.10;7.60;;;24.60;27.90;;;;;;2601769;54;20444;-82
2022/07/23 09:54:44;;;;;;;10.17;7.73;;;24.80;31.90;;;;;;2650637;36;20919;-82
2022/07/23 09:57:16;;;;;;;7.70;7.03;;;25.00;32.40;;;;;;2600503;54;21211;-83
2022/07/23 09:59:46;;;;;;;8.07;7.50;;;24.90;24.40;;;;;;2603821;54;20428;-81
2022/07/23 10:02:12;;;;;;;9.07;8.37;;;24.90;21.10;;;;;;2602862;54;20435;-79
2022/07/23 10:04:39;;;;;;;8.57;7.90;;;23.70;22.30;;;;;;2599985;54;20889;-81
2022/07/23 10:07:07;;;;;;;8.00;7.53;;;23.20;24.40;;;;;;2601300;47;21136;-82
2022/07/23 10:09:36;;;;;;;8.50;7.90;;;24.20;26.30;;;;;;2602381;39;20828;-81
2022/07/23 10:12:23;;;;;;;9.87;9.00;;;23.80;23.40;;;;;;2600457;54;20430;-79
2022/07/23 10:14:49;;;;;;;8.87;8.27;;;23.60;24.40;;;;;;2600273;47;21124;-83
2022/07/23 10:17:16;;;;;;;8.27;7.57;;;25.10;21.90;;;;;;2600872;54;20667;-82
2022/07/23 10:19:43;;;;;;;9.00;8.30;;;25.00;21.70;;;;;;2602586;39;20760;-81
2022/07/23 10:22:15;;;;;;;8.87;8.17;;;23.60;21.70;;;;;;2603680;54;21057;-81
2022/07/23 10:24:47;;;;;;;9.30;8.50;;;24.50;25.00;;;;;;2606338;54;20418;-82
2022/07/23 10:27:28;;;;;;;9.07;8.40;;;24.70;20.70;;;;;;2605801;54;20946;-83
2022/07/23 10:30:07;;;;;;;8.80;8.10;;;24.70;20.40;;;;;;2605069;54;20428;-82
2022/07/23 10:32:56;;;;;;;8.57;7.93;;;24.50;22.70;;;;;;2602740;54;21259;-80
2022/07/23 10:35:24;;;;;;;8.93;8.03;;;23.40;18.50;;;;;;2600251;54;20993;-81
2022/07/23 10:38:01;;;;;;;9.50;8.70;;;24.80;19.20;;;;;;2602748;54;21427;-80
2022/07/23 10:40:28;;;;;;;9.80;8.83;;;25.20;17.60;;;;;;2600039;54;20440;-80
2022/07/23 10:42:59;;;;;;;9.23;8.33;;;24.10;18.00;;;;;;2601639;39;20834;-81
2022/07/23 10:45:26;;;;;;;10.27;9.20;;;23.90;19.20;;;;;;2601133;54;20423;-82
2022/07/23 10:47:52;;;;;;;8.87;8.23;;;24.60;21.50;;;;;;2601407;54;20511;-80
2022/07/23 10:50:18;;;;;;;8.83;8.33;;;24.60;16.30;;;;;;2601298;54;20428;-80
2022/07/23 10:53:07;;;;;;;10.47;9.53;;;25.40;16.30;;;;;;2603184;47;20462;-81
2022/07/23 10:55:32;;;;;;;7.20;6.80;;;26.10;14.70;;;;;;2603477;54;20175;-81
2022/07/23 10:57:58;;;;;;;7.27;6.63;;;26.40;13.50;;;;;;2603627;54;21554;-79
2022/07/23 11:00:26;;;;;;;8.00;7.30;;;25.20;12.90;;;;;;2605246;39;20284;-80
2022/07/23 11:02:58;;;;;;;7.67;7.17;;;25.70;11.60;;;;;;2606295;39;20507;-81
2022/07/23 11:05:38;;;;;;;6.83;6.20;;;26.40;10.30;;;;;;2602154;54;20414;-79
2022/07/23 11:08:04;;;;;;;7.10;6.70;;;26.40;8.30;;;;;;2604723;39;20494;-81
2022/07/23 11:10:35;;;;;;;8.73;8.13;;;26.30;10.90;;;;;;2605174;39;20741;-80
2022/07/23 11:13:39;;;;;;;7.80;7.33;;;25.30;9.80;;;;;;2603650;39;20730;-79
2022/07/23 11:16:08;;;;;;;8.10;7.63;;;25.20;11.10;;;;;;2602674;54;20488;-78
2022/07/23 11:18:55;;;;;;;7.80;7.40;;;24.00;10.90;;;;;;2601716;54;20435;-80
2022/07/23 11:21:26;;;;;;;8.97;8.27;;;25.40;12.80;;;;;;2602279;54;20585;-83
2022/07/23 11:24:07;;;;;;;8.27;7.73;;;26.10;8.00;;;;;;2604090;54;20447;-83
2022/07/23 11:26:50;;;;;;;7.90;7.20;;;25.90;8.60;;;;;;2604093;54;20470;-82
2022/07/23 11:29:35;;;;;;;8.17;7.67;;;27.00;7.90;;;;;;2602563;54;20445;-85
2022/07/23 11:38:49;;;;;;;7.30;6.90;;;25.30;8.10;;;;;;2614633;54;20415;-78
2022/07/23 11:41:53;;;;;;;8.20;7.70;;;26.10;9.40;;;;;;2613620;54;20425;-78
2022/07/23 11:44:29;;;;;;;8.07;7.37;;;27.20;8.50;;;;;;2615569;54;20435;-79
2022/07/23 11:50:17;;;;;;;7.83;7.33;;;26.10;6.40;;;;;;2615362;54;20385;-78
2022/07/23 11:56:09;;;;;;;7.43;7.03;;;26.00;3.60;;;;;;2614766;54;20254;-78
2022/07/23 12:02:05;;;;;;;7.67;7.27;;;26.70;4.50;;;;;;2615081;39;20777;-79
2022/07/23 12:07:56;;;;;;;8.87;8.30;;;26.90;2.70;;;;;;2615167;54;20389;-79
2022/07/23 12:20:04;;;;;;;7.73;7.33;;;27.00;8.80;;;;;;2614811;39;20809;-79
2022/07/23 12:25:53;;;;;;;7.03;6.70;;;28.40;3.80;;;;;;2614865;54;20410;-79
2022/07/23 12:31:41;;;;;;;8.53;7.77;;;27.50;4.20;;;;;;2615335;54;20415;-82
2022/07/23 12:50:48;;;;;;;9.33;8.63;;;26.10;1.00;;;;;;2613291;54;20899;-81
2022/07/23 12:56:43;;;;;;;8.47;7.90;;;25.80;3.30;;;;;;2613322;54;20400;-81
2022/07/23 13:09:14;;;;;;;7.63;7.23;;;27.30;1.00;;;;;;2614595;39;20789;-82
2022/07/23 13:15:03;;;;;;;7.90;7.43;;;27.70;1.00;;;;;;2614326;54;20392;-81
2022/07/23 13:20:51;;;;;;;7.10;6.80;;;27.60;1.00;;;;;;2614158;54;20401;-82
2022/07/23 13:26:39;;;;;;;7.43;7.03;;;28.80;1.00;;;;;;2614332;54;20390;-81
2022/07/23 13:36:29;;;;;;;8.60;8.10;;;27.00;1.00;;;;;;2612989;54;20421;-81
2022/07/23 13:42:17;;;;;;;7.60;7.20;;;28.60;1.00;;;;;;2612973;54;20357;-80
2022/07/23 13:48:05;;;;;;;7.60;7.30;;;28.90;1.00;;;;;;2614708;54;20643;-81
2022/07/23 13:53:54;;;;;;;7.83;7.13;;;29.10;1.00;;;;;;2613611;46;20466;-80
2022/07/23 13:59:42;;;;;;;8.00;7.60;;;28.50;1.00;;;;;;2612943;54;20586;-81
2022/07/23 14:05:30;;;;;;;8.00;7.60;;;27.20;1.00;;;;;;2614485;54;20392;-80
2022/07/23 14:11:18;;;;;;;7.90;7.30;;;25.80;1.00;;;;;;2612774;54;20409;-80
2022/07/23 14:17:06;;;;;;;7.70;7.30;;;26.70;1.00;;;;;;2613517;54;20136;-83
2022/07/23 14:22:55;;;;;;;8.27;7.80;;;28.00;1.00;;;;;;2612814;54;20449;-81
2022/07/23 14:28:43;;;;;;;8.40;7.63;;;26.60;1.00;;;;;;2614347;39;20755;-82